Time;durP1;ratioP1;P1;durP2;ratioP2;P2;SDS_P1;SDS_P2;PMS_P1;PMS_P2;Temp;Humidity;BMP_temperature;BMP_pressure;BME280_temperature;BME280_humidity;BME280_pressure;Samples;Min_cycle;Max_cycle;Signal;HPM_P1;HPM_P2
2023/08/30 00:00:14;;;;;;;1.25;0.80;;;19.00;99.90;;;;;;5012265;28;20056;-39
2023/08/30 00:02:39;;;;;;;1.25;0.93;;;19.00;99.90;;;;;;5012365;28;20029;-39
2023/08/30 00:05:05;;;;;;;0.90;0.80;;;19.00;99.90;;;;;;5012778;28;20018;-41
2023/08/30 00:07:31;;;;;;;1.10;0.88;;;19.00;99.90;;;;;;5012340;28;20026;-39
2023/08/30 00:09:58;;;;;;;1.63;0.90;;;19.00;99.90;;;;;;5011972;28;20022;-43
2023/08/30 00:12:24;;;;;;;1.00;0.90;;;19.00;99.90;;;;;;5012133;28;20490;-41
2023/08/30 00:14:50;;;;;;;3.10;0.90;;;19.00;99.90;;;;;;5012165;28;20079;-41
2023/08/30 00:17:16;;;;;;;1.38;0.98;;;19.00;99.90;;;;;;5012076;28;20026;-40
2023/08/30 00:19:41;;;;;;;1.45;0.75;;;19.00;99.90;;;;;;5011736;28;20026;-40
2023/08/30 00:22:07;;;;;;;1.20;1.10;;;19.00;99.90;;;;;;5012049;28;20025;-40
2023/08/30 00:24:34;;;;;;;2.10;0.98;;;19.00;99.90;;;;;;5012123;28;20403;-43
2023/08/30 00:27:01;;;;;;;1.15;0.80;;;19.00;99.90;;;;;;5011995;28;20029;-39
2023/08/30 00:29:28;;;;;;;1.60;0.93;;;19.00;99.90;;;;;;5011723;28;20029;-42
2023/08/30 00:31:53;;;;;;;1.20;0.88;;;19.00;99.90;;;;;;5011964;28;20036;-39
2023/08/30 00:34:19;;;;;;;2.95;0.90;;;19.00;99.90;;;;;;5011818;28;20029;-39
2023/08/30 00:36:44;;;;;;;1.85;0.90;;;19.00;99.90;;;;;;5011807;28;20455;-42
2023/08/30 00:39:10;;;;;;;1.35;0.98;;;19.00;99.90;;;;;;5011391;28;20026;-43
2023/08/30 00:41:36;;;;;;;0.95;0.80;;;19.00;99.90;;;;;;5011783;28;20022;-43
2023/08/30 00:44:01;;;;;;;1.30;0.93;;;19.00;99.90;;;;;;5011799;28;20022;-42
2023/08/30 00:46:28;;;;;;;1.00;0.70;;;19.00;99.90;;;;;;5011810;28;20034;-40
2023/08/30 00:48:53;;;;;;;1.35;1.15;;;19.00;99.90;;;;;;5011061;28;20049;-40
2023/08/30 00:51:19;;;;;;;1.20;1.00;;;19.00;99.90;;;;;;5011764;28;20030;-40
2023/08/30 00:53:45;;;;;;;1.45;0.80;;;19.00;99.90;;;;;;5011862;28;20036;-39
2023/08/30 00:56:11;;;;;;;1.20;0.90;;;19.00;99.90;;;;;;5011572;28;20030;-38
2023/08/30 00:58:38;;;;;;;1.55;1.10;;;19.00;99.90;;;;;;5011707;28;20412;-38
2023/08/30 01:01:07;;;;;;;1.52;0.90;;;19.00;99.90;;;;;;5011436;28;20038;-41
2023/08/30 01:03:34;;;;;;;2.20;0.98;;;18.90;99.90;;;;;;5011459;28;20021;-40
2023/08/30 01:05:59;;;;;;;1.42;0.98;;;19.00;99.90;;;;;;5011780;28;20438;-40
2023/08/30 01:08:26;;;;;;;2.28;1.20;;;19.00;99.90;;;;;;5011631;28;20038;-38
2023/08/30 01:11:06;;;;;;;1.20;0.80;;;19.00;99.90;;;;;;5011296;28;20041;-41
2023/08/30 01:13:36;;;;;;;1.35;1.10;;;18.90;99.90;;;;;;5011549;28;20018;-41
2023/08/30 01:16:03;;;;;;;1.30;0.90;;;18.90;99.90;;;;;;5011408;28;20022;-40
2023/08/30 01:18:32;;;;;;;1.30;1.10;;;19.00;99.90;;;;;;5011518;28;20026;-39
2023/08/30 01:21:01;;;;;;;1.52;1.10;;;18.90;99.90;;;;;;5011111;28;20479;-39
2023/08/30 01:23:53;;;;;;;1.25;1.00;;;18.90;99.90;;;;;;5011438;28;20026;-42
2023/08/30 01:27:03;;;;;;;1.45;1.08;;;18.90;99.90;;;;;;5011512;28;20041;-39
2023/08/30 01:29:31;;;;;;;1.10;0.90;;;18.90;99.90;;;;;;5009881;28;20042;-42
2023/08/30 01:31:57;;;;;;;1.98;1.00;;;18.90;99.90;;;;;;5011417;28;20547;-39
2023/08/30 01:34:23;;;;;;;3.22;1.05;;;18.90;99.90;;;;;;5011285;28;20084;-40
2023/08/30 01:36:49;;;;;;;1.92;1.10;;;18.90;99.90;;;;;;5011135;28;20495;-40
2023/08/30 01:39:16;;;;;;;1.10;1.00;;;18.90;99.90;;;;;;5011027;28;20057;-39
2023/08/30 01:41:42;;;;;;;1.90;1.05;;;18.90;99.90;;;;;;5011388;28;20076;-40
2023/08/30 01:44:08;;;;;;;1.10;0.98;;;18.90;99.90;;;;;;5011383;28;20050;-43
2023/08/30 01:46:35;;;;;;;2.55;1.05;;;18.90;99.90;;;;;;5011223;28;20026;-40
2023/08/30 01:49:06;;;;;;;1.00;0.90;;;18.90;99.90;;;;;;5010955;28;20145;-38
2023/08/30 01:51:33;;;;;;;1.75;1.10;;;18.90;99.90;;;;;;5011088;28;20111;-38
2023/08/30 01:53:59;;;;;;;1.08;0.98;;;18.90;99.90;;;;;;5011187;28;20025;-40
2023/08/30 01:56:25;;;;;;;2.85;1.20;;;18.80;99.90;;;;;;5011078;28;20064;-45
2023/08/30 01:58:50;;;;;;;1.10;1.00;;;18.90;99.90;;;;;;5010949;28;20053;-43
2023/08/30 02:01:16;;;;;;;1.42;1.20;;;18.90;99.90;;;;;;5013997;28;20022;-42
2023/08/30 02:03:45;;;;;;;1.85;1.10;;;18.90;99.90;;;;;;5014736;28;20364;-39
2023/08/30 02:06:31;;;;;;;1.38;1.20;;;18.90;99.90;;;;;;5014544;28;20033;-39
2023/08/30 02:09:14;;;;;;;1.45;1.05;;;18.90;99.90;;;;;;5014342;28;20018;-40
2023/08/30 02:11:44;;;;;;;1.15;1.02;;;18.80;99.90;;;;;;5014671;28;20022;-38
2023/08/30 02:14:11;;;;;;;1.10;1.00;;;18.90;99.90;;;;;;5014370;28;20498;-39
2023/08/30 02:16:38;;;;;;;2.60;1.20;;;18.90;99.90;;;;;;5014763;28;20068;-39
2023/08/30 02:19:06;;;;;;;1.48;1.15;;;18.90;99.90;;;;;;5013088;28;20048;-40
2023/08/30 02:21:32;;;;;;;1.42;1.10;;;18.80;99.90;;;;;;5014375;28;20030;-40
2023/08/30 02:23:57;;;;;;;1.23;1.05;;;18.80;99.90;;;;;;5014269;28;20105;-40
2023/08/30 02:26:23;;;;;;;1.00;0.90;;;18.90;99.90;;;;;;5012933;28;20038;-40
2023/08/30 02:28:48;;;;;;;1.20;1.10;;;18.90;99.90;;;;;;5013865;28;20493;-37
2023/08/30 02:31:14;;;;;;;1.02;0.93;;;18.80;99.90;;;;;;5014040;28;20022;-40
2023/08/30 02:33:40;;;;;;;2.08;1.20;;;18.80;99.90;;;;;;5014486;28;20080;-39
2023/08/30 02:36:06;;;;;;;1.27;1.15;;;18.90;99.90;;;;;;5013901;28;20479;-39
2023/08/30 02:38:31;;;;;;;3.58;1.35;;;18.80;99.90;;;;;;5013900;28;20096;-39
2023/08/30 02:40:57;;;;;;;1.98;1.42;;;18.80;99.90;;;;;;5013597;28;20484;-40
2023/08/30 02:43:22;;;;;;;1.88;1.00;;;18.80;99.90;;;;;;5013711;28;20026;-40
2023/08/30 02:45:48;;;;;;;3.42;1.10;;;18.80;99.90;;;;;;5012532;28;20064;-41
2023/08/30 02:48:14;;;;;;;2.10;1.23;;;18.80;99.90;;;;;;5013798;28;20502;-40
2023/08/30 02:50:40;;;;;;;1.48;1.05;;;18.80;99.90;;;;;;5012225;28;20070;-41
2023/08/30 02:53:08;;;;;;;1.60;1.00;;;18.80;99.90;;;;;;5013692;28;20061;-39
2023/08/30 02:55:34;;;;;;;1.10;0.90;;;18.80;99.90;;;;;;5013626;28;20026;-40
2023/08/30 02:58:00;;;;;;;3.80;1.25;;;18.80;99.90;;;;;;5013508;28;20042;-39
2023/08/30 03:00:26;;;;;;;3.70;1.27;;;18.80;99.90;;;;;;5013307;28;20033;-41
2023/08/30 03:02:52;;;;;;;1.38;1.05;;;18.80;99.90;;;;;;5013588;28;20040;-40
2023/08/30 03:05:18;;;;;;;1.17;1.08;;;18.80;99.90;;;;;;5013519;28;20135;-44
2023/08/30 03:07:43;;;;;;;1.60;1.10;;;18.80;99.90;;;;;;5013469;28;20026;-41
2023/08/30 03:10:10;;;;;;;2.60;1.10;;;18.80;99.90;;;;;;5013159;28;20391;-42
2023/08/30 03:12:36;;;;;;;1.98;0.98;;;18.80;99.90;;;;;;5012347;28;20030;-42
2023/08/30 03:15:02;;;;;;;4.07;1.38;;;18.80;99.90;;;;;;5013190;28;20316;-40
2023/08/30 03:17:27;;;;;;;1.35;1.00;;;18.80;99.90;;;;;;5013405;28;20034;-38
2023/08/30 03:19:53;;;;;;;1.10;1.00;;;18.80;99.90;;;;;;5012962;28;20026;-40
2023/08/30 03:22:19;;;;;;;1.85;1.17;;;18.80;99.90;;;;;;5013221;28;20125;-40
2023/08/30 03:24:44;;;;;;;1.02;0.90;;;18.80;99.90;;;;;;5013170;28;20415;-40
2023/08/30 03:27:10;;;;;;;1.20;0.90;;;18.80;99.90;;;;;;5013064;28;20060;-40
2023/08/30 03:29:36;;;;;;;1.25;1.15;;;18.70;99.90;;;;;;5012673;28;20061;-42
2023/08/30 03:32:01;;;;;;;2.45;0.90;;;18.80;99.90;;;;;;5013003;28;20116;-40
2023/08/30 03:34:27;;;;;;;2.40;0.80;;;18.80;99.90;;;;;;5012877;28;20064;-39
2023/08/30 03:36:54;;;;;;;2.90;0.95;;;18.80;99.90;;;;;;5011629;28;20040;-42
2023/08/30 03:39:23;;;;;;;1.10;0.90;;;18.80;99.90;;;;;;5032423;23;20029;-38
2023/08/30 03:41:50;;;;;;;1.10;1.00;;;18.70;99.90;;;;;;4992957;28;20038;-37
2023/08/30 03:44:15;;;;;;;1.63;1.20;;;18.80;99.90;;;;;;4992977;28;20022;-41
2023/08/30 03:46:41;;;;;;;2.50;0.80;;;18.70;99.90;;;;;;4993067;28;20545;-39
2023/08/30 03:49:07;;;;;;;1.45;0.90;;;18.70;99.90;;;;;;4992784;28;20549;-40
2023/08/30 03:51:32;;;;;;;1.00;0.90;;;18.80;99.90;;;;;;4993010;28;20037;-40
2023/08/30 03:53:58;;;;;;;1.10;1.00;;;18.70;99.90;;;;;;4992825;28;20396;-38
2023/08/30 03:56:24;;;;;;;3.42;1.08;;;18.70;99.90;;;;;;4992980;28;20038;-38
2023/08/30 03:58:49;;;;;;;1.90;0.88;;;18.80;99.90;;;;;;4992723;28;20157;-42
2023/08/30 04:01:15;;;;;;;3.42;1.00;;;18.70;99.90;;;;;;4992659;28;20026;-38
2023/08/30 04:03:41;;;;;;;4.55;0.90;;;18.80;99.90;;;;;;4992783;28;20037;-38
2023/08/30 04:06:06;;;;;;;4.30;1.00;;;18.70;99.90;;;;;;4992645;28;20553;-38
2023/08/30 04:08:32;;;;;;;1.75;1.00;;;18.70;99.90;;;;;;4992562;28;20030;-35
2023/08/30 04:10:58;;;;;;;2.65;1.00;;;18.80;99.90;;;;;;4992422;28;20022;-36
2023/08/30 04:13:24;;;;;;;2.67;1.00;;;18.80;99.90;;;;;;4992625;28;20106;-39
2023/08/30 04:15:50;;;;;;;1.27;1.05;;;18.80;99.90;;;;;;4992484;28;20085;-37
2023/08/30 04:18:16;;;;;;;2.75;0.90;;;18.80;99.90;;;;;;4992580;28;20488;-38
2023/08/30 04:20:46;;;;;;;1.67;0.90;;;18.80;99.90;;;;;;4992188;28;20077;-38
2023/08/30 04:23:11;;;;;;;3.50;0.95;;;18.80;99.90;;;;;;4992201;28;20423;-39
2023/08/30 04:25:37;;;;;;;2.80;1.10;;;18.70;99.90;;;;;;4992455;28;20022;-39
2023/08/30 04:28:03;;;;;;;1.42;1.02;;;18.70;99.90;;;;;;4992425;28;20031;-38
2023/08/30 04:30:29;;;;;;;1.20;1.10;;;18.70;99.90;;;;;;4992073;28;20077;-40
2023/08/30 04:32:54;;;;;;;0.80;0.73;;;18.80;99.90;;;;;;4992728;28;20126;-39
2023/08/30 04:35:20;;;;;;;1.50;0.90;;;18.80;99.90;;;;;;4992179;28;20037;-37
2023/08/30 04:37:46;;;;;;;2.47;0.93;;;18.70;99.90;;;;;;4992151;28;20020;-39
2023/08/30 04:40:12;;;;;;;1.23;1.10;;;18.70;99.90;;;;;;4991844;28;20038;-38
2023/08/30 04:42:39;;;;;;;0.80;0.80;;;18.70;99.90;;;;;;4992197;28;20022;-37
2023/08/30 04:45:06;;;;;;;4.65;3.35;;;18.70;99.90;;;;;;4992079;28;20111;-34
2023/08/30 04:47:32;;;;;;;5.93;2.60;;;18.60;99.90;;;;;;4992120;28;20488;-40
2023/08/30 04:49:58;;;;;;;2.63;2.20;;;18.10;99.90;;;;;;4991820;28;20369;-36
2023/08/30 04:52:25;;;;;;;3.28;2.30;;;17.90;99.90;;;;;;4992813;28;20030;-38
2023/08/30 04:54:51;;;;;;;2.92;2.00;;;18.00;99.90;;;;;;4991099;28;20576;-38
2023/08/30 04:57:17;;;;;;;3.70;2.00;;;17.90;99.90;;;;;;4991942;28;20054;-38
2023/08/30 04:59:44;;;;;;;1.73;1.42;;;18.00;99.90;;;;;;4992044;28;20019;-40
2023/08/30 05:02:10;;;;;;;3.15;1.77;;;18.10;99.90;;;;;;4992005;28;20034;-37
2023/08/30 05:04:36;;;;;;;2.22;1.50;;;18.10;99.90;;;;;;4991852;28;20026;-37
2023/08/30 05:07:02;;;;;;;1.85;1.20;;;18.20;99.90;;;;;;4991844;28;20395;-37
2023/08/30 05:09:30;;;;;;;2.67;1.42;;;18.20;99.90;;;;;;4990376;28;20146;-40
2023/08/30 05:11:55;;;;;;;1.33;1.13;;;18.30;99.90;;;;;;4991907;28;20105;-39
2023/08/30 05:14:21;;;;;;;1.52;1.20;;;18.30;99.90;;;;;;4991826;28;20066;-38
2023/08/30 05:16:48;;;;;;;3.33;1.30;;;18.30;99.90;;;;;;4990620;28;20114;-35
2023/08/30 05:19:16;;;;;;;1.63;1.17;;;18.30;99.90;;;;;;4991532;28;20113;-38
2023/08/30 05:21:41;;;;;;;2.05;1.20;;;18.40;99.90;;;;;;4991822;28;20026;-40
2023/08/30 05:24:07;;;;;;;2.50;1.17;;;18.40;99.90;;;;;;4991779;28;20018;-37
2023/08/30 05:26:33;;;;;;;1.70;0.90;;;18.40;99.90;;;;;;4991795;28;20026;-35
2023/08/30 05:28:58;;;;;;;1.92;1.00;;;18.40;99.90;;;;;;4991559;28;20096;-41
2023/08/30 05:31:24;;;;;;;2.25;1.15;;;18.40;99.90;;;;;;4991607;28;20037;-39
2023/08/30 05:33:50;;;;;;;3.17;0.90;;;18.40;99.90;;;;;;4991610;28;20495;-41
2023/08/30 05:36:15;;;;;;;1.38;1.00;;;18.50;99.90;;;;;;4994624;28;20030;-39
2023/08/30 05:38:41;;;;;;;1.20;1.10;;;18.50;99.90;;;;;;4995422;28;20077;-38
2023/08/30 05:41:07;;;;;;;1.20;0.95;;;18.50;99.90;;;;;;4995280;28;20487;-40
2023/08/30 05:43:33;;;;;;;3.05;1.05;;;18.50;99.90;;;;;;4995454;28;20050;-37
2023/08/30 05:46:02;;;;;;;1.48;1.20;;;18.50;99.90;;;;;;4995459;28;20458;-39
2023/08/30 05:48:30;;;;;;;1.08;0.88;;;18.50;99.90;;;;;;4995203;28;20023;-37
2023/08/30 05:50:56;;;;;;;2.95;0.88;;;18.50;99.90;;;;;;4995013;28;20029;-39
2023/08/30 05:53:23;;;;;;;1.42;0.88;;;18.50;99.90;;;;;;4995326;28;20498;-38
2023/08/30 05:55:49;;;;;;;1.23;0.90;;;18.50;99.90;;;;;;4995122;28;20022;-38
2023/08/30 05:58:15;;;;;;;2.35;1.00;;;18.50;99.90;;;;;;4995168;28;20029;-42
2023/08/30 06:00:41;;;;;;;2.97;1.00;;;18.50;99.90;;;;;;4994840;28;20387;-36
2023/08/30 06:03:07;;;;;;;1.85;1.20;;;18.50;99.90;;;;;;4994908;28;20026;-39
2023/08/30 06:05:33;;;;;;;1.17;0.80;;;18.50;99.90;;;;;;4995012;28;20037;-37
2023/08/30 06:07:59;;;;;;;1.05;0.82;;;18.50;99.90;;;;;;4994970;28;20105;-38
2023/08/30 06:10:25;;;;;;;2.10;1.00;;;18.50;99.90;;;;;;4994606;28;20173;-39
2023/08/30 06:12:50;;;;;;;1.67;1.20;;;18.50;99.90;;;;;;4994968;28;20391;-40
2023/08/30 06:15:16;;;;;;;0.95;0.80;;;18.50;99.90;;;;;;4994743;28;20037;-38
2023/08/30 06:17:42;;;;;;;0.95;0.70;;;18.50;99.90;;;;;;4994662;28;20033;-36
2023/08/30 06:20:08;;;;;;;2.47;1.00;;;18.50;99.90;;;;;;4994817;28;20025;-34
2023/08/30 06:22:33;;;;;;;1.10;0.80;;;18.50;99.90;;;;;;4994718;28;20033;-37
2023/08/30 06:24:59;;;;;;;1.02;0.93;;;18.50;99.90;;;;;;4993283;28;20026;-35
2023/08/30 06:27:24;;;;;;;1.33;1.00;;;18.50;99.90;;;;;;4993284;28;20030;-38
2023/08/30 06:29:50;;;;;;;0.90;0.80;;;18.50;99.90;;;;;;4994302;28;20031;-35
2023/08/30 06:32:16;;;;;;;2.97;0.90;;;18.50;99.90;;;;;;4994950;28;20092;-40
2023/08/30 06:34:42;;;;;;;1.23;0.85;;;18.50;99.90;;;;;;4994637;28;20420;-40
2023/08/30 06:37:08;;;;;;;0.98;0.75;;;18.60;99.90;;;;;;4994498;28;20543;-37
2023/08/30 06:39:35;;;;;;;2.63;1.00;;;18.50;99.90;;;;;;4994139;28;20037;-38
2023/08/30 06:42:01;;;;;;;0.80;0.70;;;18.60;99.90;;;;;;4994419;28;20491;-40
2023/08/30 06:44:27;;;;;;;1.13;0.95;;;18.60;99.90;;;;;;4994270;28;20026;-37
2023/08/30 06:46:52;;;;;;;1.25;1.00;;;18.60;99.90;;;;;;4992847;28;20045;-35
2023/08/30 06:49:18;;;;;;;1.38;1.00;;;18.60;99.90;;;;;;4993878;28;20472;-36
2023/08/30 06:51:44;;;;;;;1.20;0.90;;;18.60;99.90;;;;;;4992870;28;20030;-37
2023/08/30 06:54:09;;;;;;;1.10;0.70;;;18.50;99.90;;;;;;4994427;28;20035;-36
2023/08/30 06:56:35;;;;;;;0.80;0.70;;;18.60;99.90;;;;;;4992761;28;20390;-40
2023/08/30 06:59:00;;;;;;;2.58;0.82;;;18.60;99.90;;;;;;4993955;28;20034;-38
2023/08/30 07:01:26;;;;;;;1.10;0.80;;;18.60;99.90;;;;;;4993848;28;20023;-37
2023/08/30 07:03:51;;;;;;;1.23;0.95;;;18.60;99.90;;;;;;4994010;28;20058;-34
2023/08/30 07:06:17;;;;;;;1.77;0.80;;;18.60;99.90;;;;;;4993883;28;20053;-38
2023/08/30 07:08:43;;;;;;;0.82;0.63;;;18.60;99.90;;;;;;4993757;28;20039;-38
2023/08/30 07:11:09;;;;;;;2.80;2.50;;;18.60;99.90;;;;;;4993620;28;20029;-35
2023/08/30 07:13:34;;;;;;;5.82;3.70;;;18.60;99.90;;;;;;4993702;28;20019;-39
2023/08/30 07:16:00;;;;;;;4.07;3.38;;;18.40;99.90;;;;;;4993538;28;20038;-37
2023/08/30 07:18:25;;;;;;;4.97;3.15;;;18.10;99.90;;;;;;4993819;28;20026;-35
2023/08/30 07:20:51;;;;;;;3.58;3.10;;;18.00;99.90;;;;;;4992040;28;20032;-36
2023/08/30 07:23:17;;;;;;;3.55;2.80;;;17.90;99.90;;;;;;4993575;28;20510;-38
2023/08/30 07:25:42;;;;;;;2.70;2.35;;;17.90;99.90;;;;;;4993532;28;20038;-41
2023/08/30 07:28:08;;;;;;;3.40;2.63;;;17.80;99.90;;;;;;4993449;28;20027;-35
2023/08/30 07:30:35;;;;;;;6.47;4.20;;;17.90;99.90;;;;;;4993039;28;20026;-37
2023/08/30 07:33:00;;;;;;;5.45;3.70;;;17.70;99.90;;;;;;4993306;28;20427;-38
2023/08/30 07:35:26;;;;;;;3.65;3.30;;;17.50;99.90;;;;;;4993475;28;20027;-40
2023/08/30 07:37:52;;;;;;;5.00;2.80;;;17.50;99.90;;;;;;4993424;28;20033;-35
2023/08/30 07:40:17;;;;;;;3.55;2.90;;;17.50;99.90;;;;;;4992870;28;20529;-39
2023/08/30 07:42:43;;;;;;;3.47;2.92;;;17.60;99.90;;;;;;4993199;28;20522;-36
2023/08/30 07:45:09;;;;;;;2.83;2.42;;;17.70;99.90;;;;;;4993026;28;20487;-39
2023/08/30 07:47:35;;;;;;;3.08;2.28;;;17.80;99.90;;;;;;4993308;28;20038;-39
2023/08/30 07:50:00;;;;;;;3.03;2.00;;;17.80;99.90;;;;;;4991424;28;20545;-38
2023/08/30 07:52:26;;;;;;;2.40;1.90;;;17.90;99.90;;;;;;4993054;28;20038;-37
2023/08/30 07:54:52;;;;;;;2.80;1.90;;;18.00;99.90;;;;;;4993320;28;20480;-38
2023/08/30 07:57:17;;;;;;;2.97;2.00;;;18.10;99.90;;;;;;4992550;28;20030;-40
2023/08/30 07:59:43;;;;;;;2.38;1.77;;;18.10;99.90;;;;;;4992465;28;20026;-35
2023/08/30 08:02:08;;;;;;;2.03;1.60;;;18.20;99.90;;;;;;4992790;28;20383;-37
2023/08/30 08:04:35;;;;;;;1.70;1.50;;;18.20;99.90;;;;;;4992830;28;20241;-39
2023/08/30 08:07:01;;;;;;;1.55;1.38;;;18.20;99.90;;;;;;4992828;28;20026;-37
2023/08/30 08:09:27;;;;;;;2.03;1.52;;;18.30;99.90;;;;;;4992493;28;20022;-37
2023/08/30 08:11:53;;;;;;;4.18;1.70;;;18.30;99.90;;;;;;4992734;28;20391;-41
2023/08/30 08:14:19;;;;;;;1.42;1.30;;;18.30;99.90;;;;;;4992522;28;20088;-39
2023/08/30 08:16:45;;;;;;;2.13;1.30;;;18.40;99.90;;;;;;4992503;28;20479;-34
2023/08/30 08:19:12;;;;;;;1.90;1.38;;;18.40;99.90;;;;;;4990967;28;20037;-35
2023/08/30 08:21:38;;;;;;;1.55;1.30;;;18.40;99.90;;;;;;4992541;28;20014;-38
2023/08/30 08:24:03;;;;;;;1.58;1.45;;;18.50;99.90;;;;;;4992507;28;20029;-38
2023/08/30 08:26:29;;;;;;;1.80;1.30;;;18.40;99.90;;;;;;4992386;28;20448;-35
2023/08/30 08:28:55;;;;;;;3.05;1.40;;;18.50;99.90;;;;;;4992146;28;20362;-39
2023/08/30 08:31:21;;;;;;;2.92;1.30;;;18.50;99.90;;;;;;4990900;28;20034;-38
2023/08/30 08:33:49;;;;;;;2.05;1.20;;;18.50;99.90;;;;;;4992328;28;20542;-35
2023/08/30 08:36:15;;;;;;;5.10;1.58;;;18.60;99.90;;;;;;4992218;28;20041;-38
2023/08/30 08:38:41;;;;;;;1.30;1.20;;;18.60;99.90;;;;;;4992289;28;20026;-38
2023/08/30 08:41:09;;;;;;;2.03;1.00;;;18.60;99.90;;;;;;4991982;28;20484;-39
2023/08/30 08:43:36;;;;;;;1.88;1.30;;;18.60;99.90;;;;;;4991972;28;20492;-40
2023/08/30 08:46:03;;;;;;;1.45;1.17;;;18.60;99.90;;;;;;4992123;28;20057;-38
2023/08/30 08:48:31;;;;;;;1.65;1.00;;;18.70;99.90;;;;;;4992067;28;20506;-40
2023/08/30 08:50:57;;;;;;;1.75;1.30;;;18.70;99.90;;;;;;4991848;28;20041;-39
2023/08/30 08:53:23;;;;;;;1.10;1.00;;;18.70;99.90;;;;;;4992077;28;20022;-38
2023/08/30 08:55:49;;;;;;;1.17;1.02;;;18.70;99.90;;;;;;4991929;28;20037;-39
2023/08/30 08:58:16;;;;;;;1.55;1.20;;;18.70;99.90;;;;;;4991969;28;20018;-37
2023/08/30 09:00:42;;;;;;;1.38;1.13;;;18.70;99.90;;;;;;4991648;28;20027;-36
2023/08/30 09:03:09;;;;;;;1.80;1.20;;;18.80;99.90;;;;;;4991999;28;20501;-37
2023/08/30 09:05:37;;;;;;;2.10;1.38;;;18.80;99.90;;;;;;4991972;28;20027;-38
2023/08/30 09:08:04;;;;;;;1.48;1.23;;;18.80;99.90;;;;;;4991966;28;20050;-40
2023/08/30 09:10:32;;;;;;;1.23;1.10;;;18.80;99.90;;;;;;4993518;28;20047;-38
2023/08/30 09:12:58;;;;;;;1.33;0.82;;;18.90;99.90;;;;;;4996039;28;20475;-36
2023/08/30 09:15:34;;;;;;;1.25;1.13;;;18.90;99.90;;;;;;4995842;28;20080;-37
2023/08/30 09:17:59;;;;;;;1.52;1.13;;;18.90;99.90;;;;;;4995998;28;20029;-38
2023/08/30 09:20:25;;;;;;;1.65;1.10;;;18.90;99.90;;;;;;4995672;28;20026;-40
2023/08/30 09:22:51;;;;;;;1.50;1.10;;;18.90;99.90;;;;;;4995848;28;20034;-39
2023/08/30 09:25:25;;;;;;;2.30;1.00;;;19.00;99.90;;;;;;4995733;28;20439;-39
2023/08/30 09:27:51;;;;;;;1.50;1.00;;;19.00;99.90;;;;;;4995760;28;20546;-36
2023/08/30 09:30:22;;;;;;;1.73;1.23;;;19.00;99.90;;;;;;4995610;28;20048;-38
2023/08/30 09:32:47;;;;;;;1.52;1.10;;;19.00;99.90;;;;;;4995680;28;20384;-38
2023/08/30 09:35:13;;;;;;;1.38;1.00;;;19.00;99.90;;;;;;4995719;28;20029;-35
2023/08/30 09:37:40;;;;;;;1.38;1.20;;;;;;;;;;4995321;28;20483;-38
2023/08/30 09:40:08;;;;;;;3.58;1.10;;;19.10;99.90;;;;;;5027927;23;20511;-38
2023/08/30 09:42:35;;;;;;;1.17;0.88;;;19.00;99.90;;;;;;4974433;28;20045;-38
2023/08/30 09:45:01;;;;;;;1.02;0.93;;;19.10;99.90;;;;;;4974511;28;20388;-38
2023/08/30 09:47:27;;;;;;;1.05;0.95;;;19.10;99.90;;;;;;4974779;28;20072;-38
2023/08/30 09:49:55;;;;;;;1.50;0.90;;;19.10;99.90;;;;;;4974363;28;20076;-38
2023/08/30 09:52:24;;;;;;;1.60;1.00;;;19.10;99.90;;;;;;4974635;28;20027;-38
2023/08/30 09:54:54;;;;;;;1.00;0.90;;;19.20;99.90;;;;;;4974478;28;20037;-38
2023/08/30 09:57:21;;;;;;;6.25;0.80;;;19.20;99.90;;;;;;4974630;28;20027;-37
2023/08/30 09:59:48;;;;;;;2.28;1.20;;;;;;;;;;4974302;28;20015;-38
2023/08/30 10:02:14;;;;;;;1.77;0.98;;;19.20;99.90;;;;;;4974647;28;20443;-37
2023/08/30 10:04:40;;;;;;;1.33;1.05;;;19.20;99.90;;;;;;4974458;28;20054;-38
2023/08/30 10:07:07;;;;;;;1.10;0.90;;;19.20;99.90;;;;;;4974506;28;20061;-38
2023/08/30 10:09:33;;;;;;;1.60;0.80;;;19.30;99.90;;;;;;4974200;28;20031;-38
2023/08/30 10:12:01;;;;;;;1.27;0.98;;;19.30;99.90;;;;;;4974599;28;20515;-38
2023/08/30 10:14:27;;;;;;;1.40;0.95;;;19.30;99.90;;;;;;4974319;28;20551;-38
2023/08/30 10:17:02;;;;;;;1.00;0.90;;;19.30;99.90;;;;;;4974224;28;20118;-38
2023/08/30 10:19:28;;;;;;;3.08;0.95;;;19.30;99.90;;;;;;4974066;28;20517;-38
2023/08/30 10:22:04;;;;;;;1.17;0.90;;;19.30;99.90;;;;;;4974204;28;20426;-38
2023/08/30 10:24:35;;;;;;;1.00;0.80;;;19.30;99.90;;;;;;4974282;28;20047;-38
2023/08/30 10:27:05;;;;;;;1.10;1.00;;;19.40;99.90;;;;;;4974362;28;20027;-38
2023/08/30 10:29:33;;;;;;;0.82;0.70;;;19.40;99.90;;;;;;4973787;28;20027;-38
2023/08/30 10:32:06;;;;;;;3.67;1.10;;;19.40;99.90;;;;;;4974033;28;20046;-37
2023/08/30 10:34:36;;;;;;;1.13;0.75;;;19.40;99.90;;;;;;4974276;28;20050;-38
2023/08/30 10:37:06;;;;;;;1.55;1.05;;;19.40;99.90;;;;;;4974020;28;20787;-37
2023/08/30 10:39:39;;;;;;;0.82;0.70;;;19.40;99.90;;;;;;4931976;28;1217944;-37
2023/08/30 10:42:15;;;;;;;1.90;1.40;;;19.50;99.90;;;;;;4975054;28;20484;-38
2023/08/30 10:45:07;;;;;;;3.08;2.00;;;19.50;99.90;;;;;;4968189;28;20152;-38
2023/08/30 10:47:40;;;;;;;5.13;1.88;;;19.40;99.90;;;;;;4966130;28;20049;-38
2023/08/30 10:50:10;;;;;;;2.42;1.17;;;19.40;99.90;;;;;;4972473;28;20105;-38
2023/08/30 10:52:36;;;;;;;3.17;1.55;;;19.40;99.90;;;;;;4974858;28;20106;-38
2023/08/30 10:55:11;;;;;;;4.88;1.27;;;19.40;99.90;;;;;;4975086;28;20109;-40
2023/08/30 10:57:41;;;;;;;2.55;1.33;;;19.40;99.90;;;;;;4974703;28;20035;-38
2023/08/30 11:00:09;;;;;;;1.65;1.40;;;19.40;99.90;;;;;;4974582;28;20105;-38
2023/08/30 11:02:37;;;;;;;1.27;1.17;;;19.40;99.90;;;;;;4974488;28;20023;-38
2023/08/30 11:05:05;;;;;;;2.25;1.20;;;19.40;99.90;;;;;;4975144;28;20022;-38
2023/08/30 11:07:31;;;;;;;1.95;1.20;;;19.40;99.90;;;;;;4974657;28;20454;-38
2023/08/30 11:09:57;;;;;;;2.10;1.20;;;19.40;99.90;;;;;;4974198;28;20106;-38
2023/08/30 11:12:23;;;;;;;1.00;0.90;;;19.40;99.90;;;;;;4974286;28;20042;-38
2023/08/30 11:14:49;;;;;;;1.88;1.30;;;19.40;99.90;;;;;;4974339;28;20030;-38
2023/08/30 11:17:19;;;;;;;2.50;1.00;;;19.40;99.90;;;;;;4974277;28;20092;-38
2023/08/30 11:19:45;;;;;;;1.10;0.98;;;19.40;99.90;;;;;;4973879;28;20094;-38
2023/08/30 11:22:13;;;;;;;1.50;1.13;;;19.40;99.90;;;;;;4974202;28;20023;-38
2023/08/30 11:24:39;;;;;;;1.48;1.10;;;19.40;99.90;;;;;;4974119;28;20022;-38
2023/08/30 11:27:05;;;;;;;1.90;1.10;;;19.40;99.90;;;;;;4974135;28;20034;-38
2023/08/30 11:29:30;;;;;;;1.85;1.10;;;19.40;99.90;;;;;;4973803;28;20038;-38
2023/08/30 11:31:56;;;;;;;2.15;1.20;;;19.40;99.90;;;;;;4973797;28;20030;-38
2023/08/30 11:34:22;;;;;;;1.70;1.10;;;19.40;99.90;;;;;;4973399;28;20380;-38
2023/08/30 11:36:49;;;;;;;1.85;1.20;;;19.40;99.90;;;;;;4973833;28;20512;-38
2023/08/30 11:39:16;;;;;;;1.67;1.15;;;19.40;99.90;;;;;;4973880;28;20502;-38
2023/08/30 11:41:43;;;;;;;1.52;1.20;;;19.40;99.90;;;;;;4973671;28;20192;-38
2023/08/30 11:44:09;;;;;;;1.23;1.10;;;19.40;99.90;;;;;;4973842;28;20023;-38
2023/08/30 11:46:35;;;;;;;1.23;1.10;;;19.40;99.90;;;;;;4973806;28;20023;-38
2023/08/30 11:49:02;;;;;;;1.83;1.00;;;19.40;99.90;;;;;;4973532;28;20038;-38
2023/08/30 11:51:29;;;;;;;1.92;1.15;;;19.30;99.90;;;;;;4972514;28;20397;-38
2023/08/30 11:53:55;;;;;;;2.30;1.20;;;19.30;99.90;;;;;;4973898;28;20023;-38
2023/08/30 11:56:21;;;;;;;0.82;0.82;;;19.40;99.90;;;;;;4973623;28;20026;-38
2023/08/30 11:58:47;;;;;;;1.40;0.95;;;19.30;99.90;;;;;;4973543;28;20038;-38
2023/08/30 12:01:13;;;;;;;1.70;1.10;;;19.30;99.90;;;;;;4973270;28;20150;-39
2023/08/30 12:03:39;;;;;;;1.67;1.17;;;19.30;99.90;;;;;;4973452;28;20023;-38
2023/08/30 12:06:11;;;;;;;3.60;1.33;;;19.30;99.90;;;;;;4973580;28;20038;-38
2023/08/30 12:08:37;;;;;;;2.25;1.08;;;19.30;99.90;;;;;;4973396;28;20058;-39
2023/08/30 12:11:03;;;;;;;1.80;1.00;;;19.30;99.90;;;;;;4973085;28;20047;-38
2023/08/30 12:13:34;;;;;;;1.50;1.10;;;19.30;99.90;;;;;;4973390;28;20777;-38
2023/08/30 12:16:02;;;;;;;1.67;1.00;;;19.30;99.90;;;;;;4973132;28;20514;-40
2023/08/30 12:18:29;;;;;;;1.73;1.20;;;19.30;99.90;;;;;;4973398;28;20033;-38
2023/08/30 12:20:57;;;;;;;1.30;1.10;;;19.30;99.90;;;;;;4973448;28;20027;-38
2023/08/30 12:23:23;;;;;;;1.42;1.00;;;19.30;99.90;;;;;;4973465;28;20031;-38
2023/08/30 12:26:09;;;;;;;1.25;0.90;;;19.30;99.90;;;;;;4973270;28;20298;-39
2023/08/30 12:28:44;;;;;;;1.60;1.10;;;19.30;99.90;;;;;;4973236;28;20033;-38
2023/08/30 12:31:10;;;;;;;;;;;19.30;99.90;;;;;;4973469;28;20091;-38
2023/08/30 12:33:36;;;;;;;2.03;0.80;;;19.30;99.90;;;;;;4973339;28;19906;-38
2023/08/30 12:36:03;;;;;;;1.40;1.05;;;19.30;99.90;;;;;;4972958;28;20607;-38
2023/08/30 12:38:29;;;;;;;1.23;1.00;;;19.30;99.90;;;;;;4973520;28;20026;-39
2023/08/30 12:40:56;;;;;;;1.85;1.10;;;19.30;99.90;;;;;;4972772;28;20035;-39
2023/08/30 12:43:22;;;;;;;1.38;1.02;;;19.30;99.90;;;;;;4973005;28;20030;-38
2023/08/30 12:45:49;;;;;;;1.30;1.10;;;19.30;99.90;;;;;;4973267;28;20082;-38